Time;durP1;ratioP1;P1;durP2;ratioP2;P2;SDS_P1;SDS_P2;PMS_P1;PMS_P2;Temp;Humidity;BMP_temperature;BMP_pressure;BME280_temperature;BME280_humidity;BME280_pressure;Samples;Min_cycle;Max_cycle;Signal;HPM_P1;HPM_P2
2023/12/12 00:00:27;;;;;;;6.65;2.25;;;6.10;99.90;;;;;;5048278;28;20120;-78
2023/12/12 00:02:53;;;;;;;6.15;1.77;;;6.00;99.90;;;;;;5049508;28;20098;-78
2023/12/12 00:05:19;;;;;;;7.38;1.90;;;5.90;99.90;;;;;;5082494;28;20444;-78
2023/12/12 00:07:44;;;;;;;7.75;2.30;;;6.10;99.90;;;;;;5080575;28;20037;-78
2023/12/12 00:10:10;;;;;;;5.07;1.90;;;6.30;99.90;;;;;;5048641;28;20052;-78
2023/12/12 00:12:35;;;;;;;8.27;1.95;;;5.80;99.90;;;;;;5043098;28;20048;-77
2023/12/12 00:15:01;;;;;;;6.35;1.63;;;5.70;99.90;;;;;;5057956;28;20083;-78
2023/12/12 00:17:27;;;;;;;4.28;1.60;;;5.70;99.90;;;;;;5044565;28;20052;-77
2023/12/12 00:19:52;;;;;;;7.00;2.80;;;5.70;99.90;;;;;;5041362;28;20060;-78
2023/12/12 00:22:18;;;;;;;5.35;1.88;;;5.60;99.90;;;;;;5045206;28;20036;-78
2023/12/12 00:24:43;;;;;;;5.05;1.80;;;5.60;99.90;;;;;;5047133;28;20524;-78
2023/12/12 00:27:09;;;;;;;5.45;1.77;;;5.60;99.90;;;;;;5049280;28;20040;-77
2023/12/12 00:29:38;;;;;;;6.82;2.13;;;5.80;99.90;;;;;;5047112;28;20455;-78
2023/12/12 00:32:04;;;;;;;7.80;2.00;;;5.50;99.90;;;;;;5024048;28;20045;-77
2023/12/12 00:34:30;;;;;;;6.10;1.92;;;5.40;99.90;;;;;;5045079;28;20431;-78
2023/12/12 00:36:56;;;;;;;7.38;2.00;;;5.40;99.90;;;;;;5048379;28;20041;-78
2023/12/12 00:39:21;;;;;;;4.93;1.85;;;5.30;99.90;;;;;;5044764;28;20033;-78
2023/12/12 00:41:48;;;;;;;4.43;1.90;;;5.30;99.90;;;;;;5046663;28;20037;-77
2023/12/12 00:44:14;;;;;;;4.53;2.00;;;5.20;99.90;;;;;;5047166;28;20051;-77
2023/12/12 00:46:40;;;;;;;6.03;2.10;;;5.20;99.90;;;;;;5045822;28;20048;-77
2023/12/12 00:49:05;;;;;;;5.90;1.60;;;5.20;99.90;;;;;;5053328;28;20040;-78
2023/12/12 00:51:32;;;;;;;4.38;1.80;;;5.20;99.90;;;;;;5083220;28;20036;-78
2023/12/12 00:53:58;;;;;;;6.45;1.90;;;5.10;99.90;;;;;;5024514;28;20037;-78
2023/12/12 00:56:23;;;;;;;5.13;1.83;;;5.10;99.90;;;;;;5045250;28;20047;-78
2023/12/12 00:58:49;;;;;;;5.40;1.70;;;5.00;99.90;;;;;;5033577;28;20045;-77
2023/12/12 01:01:15;;;;;;;6.10;1.80;;;5.00;99.90;;;;;;5046966;28;20056;-78
2023/12/12 01:03:40;;;;;;;6.03;1.90;;;5.00;99.90;;;;;;5047568;28;20044;-78
2023/12/12 01:06:07;;;;;;;6.13;2.10;;;4.90;99.90;;;;;;5046194;28;20045;-77
2023/12/12 01:08:33;;;;;;;7.13;2.30;;;4.90;99.90;;;;;;5027614;28;20470;-77
2023/12/12 01:10:59;;;;;;;6.72;2.00;;;4.80;99.90;;;;;;5049952;28;20408;-78
2023/12/12 01:13:25;;;;;;;5.13;1.70;;;4.80;99.90;;;;;;5052837;28;20040;-78
2023/12/12 01:15:50;;;;;;;5.43;2.13;;;4.80;99.90;;;;;;5048847;28;20119;-78
2023/12/12 01:18:16;;;;;;;6.97;2.00;;;4.70;99.90;;;;;;5051223;28;20626;-78
2023/12/12 01:20:41;;;;;;;8.00;2.17;;;4.70;99.90;;;;;;5052037;28;20033;-78
2023/12/12 01:23:07;;;;;;;4.75;1.95;;;4.60;99.90;;;;;;5051808;28;20449;-78
2023/12/12 01:25:33;;;;;;;4.85;1.85;;;4.60;99.90;;;;;;5053078;28;20116;-78
2023/12/12 01:27:59;;;;;;;4.85;1.80;;;4.50;99.90;;;;;;5053310;28;20473;-78
2023/12/12 01:30:24;;;;;;;5.70;1.90;;;4.50;99.90;;;;;;5025804;28;21591;-78
2023/12/12 01:32:50;;;;;;;5.57;2.50;;;4.70;99.90;;;;;;5046081;28;20067;-78
2023/12/12 01:35:15;;;;;;;4.07;2.17;;;4.40;99.90;;;;;;5046198;28;20080;-78
2023/12/12 01:37:41;;;;;;;6.03;2.30;;;4.30;99.90;;;;;;5048840;28;20128;-78
2023/12/12 01:40:08;;;;;;;5.15;2.20;;;4.30;99.90;;;;;;5061821;28;20519;-78
2023/12/12 01:42:34;;;;;;;6.32;2.40;;;4.30;99.90;;;;;;5044863;28;20090;-78
2023/12/12 01:44:59;;;;;;;5.30;2.10;;;4.20;99.90;;;;;;5049905;28;20037;-77
2023/12/12 01:47:26;;;;;;;4.97;2.20;;;4.20;99.90;;;;;;5051768;28;20041;-78
2023/12/12 01:49:52;;;;;;;7.90;2.30;;;4.20;99.90;;;;;;5051457;28;20079;-78
2023/12/12 01:52:21;;;;;;;8.43;2.20;;;4.20;99.90;;;;;;5066788;28;20131;-78
2023/12/12 01:54:49;;;;;;;7.93;2.90;;;4.10;99.90;;;;;;5051359;28;20094;-77
2023/12/12 01:57:16;;;;;;;3.45;2.15;;;4.10;99.90;;;;;;5050232;28;20071;-78
2023/12/12 01:59:47;;;;;;;7.05;2.45;;;4.10;99.90;;;;;;5048679;28;20029;-77
2023/12/12 02:02:16;;;;;;;5.82;2.10;;;4.00;99.90;;;;;;5049854;28;20052;-78
2023/12/12 02:04:43;;;;;;;6.70;2.88;;;4.00;99.90;;;;;;5049554;28;20064;-78
2023/12/12 02:07:09;;;;;;;7.22;2.17;;;3.90;99.90;;;;;;5044594;28;20136;-78
2023/12/12 02:09:35;;;;;;;4.75;2.33;;;3.90;99.90;;;;;;5051007;28;20033;-78
2023/12/12 02:12:01;;;;;;;6.32;2.20;;;3.90;99.90;;;;;;5051296;28;20045;-77
2023/12/12 02:14:27;;;;;;;6.80;1.92;;;3.90;99.90;;;;;;5051738;28;20120;-78
2023/12/12 02:16:53;;;;;;;5.30;2.15;;;3.80;99.90;;;;;;5046999;28;20041;-77
2023/12/12 02:19:19;;;;;;;4.43;2.25;;;3.80;99.90;;;;;;5068785;28;20103;-78
2023/12/12 02:21:44;;;;;;;4.35;2.00;;;4.20;99.90;;;;;;5050308;28;20036;-77
2023/12/12 02:24:10;;;;;;;5.50;2.05;;;3.70;99.90;;;;;;5051353;28;20064;-78
2023/12/12 02:26:35;;;;;;;7.70;2.42;;;3.70;99.90;;;;;;5046141;28;20029;-78
2023/12/12 02:29:01;;;;;;;3.25;2.05;;;3.70;99.90;;;;;;5045523;28;20037;-78
2023/12/12 02:31:27;;;;;;;10.10;2.45;;;3.70;99.90;;;;;;5040156;28;20052;-78
2023/12/12 02:33:52;;;;;;;5.90;2.03;;;3.60;99.90;;;;;;5044772;28;20492;-77
2023/12/12 02:36:20;;;;;;;7.35;2.35;;;3.60;99.90;;;;;;5049685;28;20087;-78
2023/12/12 02:38:46;;;;;;;7.95;2.47;;;3.60;99.90;;;;;;5045164;28;20163;-78
2023/12/12 02:41:12;;;;;;;5.70;2.20;;;3.60;99.90;;;;;;5048737;28;20060;-78
2023/12/12 02:43:37;;;;;;;3.72;2.20;;;3.60;99.90;;;;;;5047946;28;20041;-78
2023/12/12 02:46:03;;;;;;;5.93;2.05;;;3.60;99.90;;;;;;5035457;28;20408;-77
2023/12/12 02:48:29;;;;;;;7.43;2.35;;;3.50;99.90;;;;;;5043157;28;20033;-78
2023/12/12 02:50:54;;;;;;;4.88;2.05;;;3.50;99.90;;;;;;5046213;28;20045;-78
2023/12/12 02:53:20;;;;;;;3.22;1.92;;;3.50;99.90;;;;;;5046563;28;20033;-78
2023/12/12 02:55:45;;;;;;;3.25;2.00;;;3.50;99.90;;;;;;5046603;28;20041;-78
2023/12/12 02:58:11;;;;;;;5.38;2.13;;;3.50;99.90;;;;;;5031915;28;20119;-78
2023/12/12 03:00:37;;;;;;;4.60;2.05;;;3.40;99.90;;;;;;5045829;28;20032;-78
2023/12/12 03:03:02;;;;;;;5.35;2.10;;;3.40;99.90;;;;;;5048091;28;20037;-78
2023/12/12 03:05:28;;;;;;;7.90;2.25;;;3.40;99.90;;;;;;5047242;28;20062;-78
2023/12/12 03:07:53;;;;;;;9.98;2.45;;;3.40;99.90;;;;;;5046584;28;20048;-78
2023/12/12 03:10:19;;;;;;;3.92;2.20;;;3.40;99.90;;;;;;5046189;28;20036;-78
2023/12/12 03:12:45;;;;;;;4.88;2.20;;;3.30;99.90;;;;;;5046037;28;20056;-78
2023/12/12 03:15:11;;;;;;;7.18;2.13;;;3.30;99.90;;;;;;5043100;28;20059;-78
2023/12/12 03:17:37;;;;;;;5.72;2.20;;;3.30;99.90;;;;;;5050884;28;20033;-78
2023/12/12 03:20:02;;;;;;;6.20;1.92;;;3.30;99.90;;;;;;5044524;28;20045;-78
2023/12/12 03:22:28;;;;;;;4.45;1.83;;;3.30;99.90;;;;;;5039518;28;20076;-78
2023/12/12 03:24:55;;;;;;;4.93;1.83;;;3.20;99.90;;;;;;5048728;28;20033;-78
2023/12/12 03:27:20;;;;;;;3.45;2.00;;;3.30;99.90;;;;;;5044421;28;20052;-78
2023/12/12 03:29:46;;;;;;;5.22;2.08;;;3.30;99.90;;;;;;5030035;28;20041;-78
2023/12/12 03:32:12;;;;;;;5.80;1.98;;;3.30;99.90;;;;;;5051241;28;20458;-77
2023/12/12 03:34:37;;;;;;;10.85;2.47;;;3.20;99.90;;;;;;5025513;28;20403;-78
2023/12/12 03:37:03;;;;;;;6.57;1.95;;;3.20;99.90;;;;;;5043367;28;20068;-78
2023/12/12 03:39:29;;;;;;;5.78;1.80;;;3.20;99.90;;;;;;5040821;28;20029;-78
2023/12/12 03:41:54;;;;;;;6.20;2.10;;;3.20;99.90;;;;;;5042995;28;20041;-78
2023/12/12 03:44:20;;;;;;;9.20;2.35;;;3.20;99.90;;;;;;5048946;28;20048;-78
2023/12/12 03:46:46;;;;;;;8.43;2.10;;;3.20;99.90;;;;;;5050257;28;20416;-78
2023/12/12 03:49:12;;;;;;;4.47;2.00;;;3.10;99.90;;;;;;5041331;28;20523;-78
2023/12/12 03:51:38;;;;;;;5.22;1.80;;;3.10;99.90;;;;;;5079723;28;20095;-77
2023/12/12 03:54:04;;;;;;;6.10;1.90;;;3.00;99.90;;;;;;5046493;28;20483;-78
2023/12/12 03:56:29;;;;;;;8.02;1.80;;;3.00;99.90;;;;;;5042947;28;20115;-78
2023/12/12 03:58:58;;;;;;;3.95;1.90;;;3.00;99.90;;;;;;5045011;28;20066;-78
2023/12/12 04:01:23;;;;;;;8.35;2.47;;;3.00;99.90;;;;;;5046935;28;20041;-77
2023/12/12 04:03:49;;;;;;;7.25;2.33;;;3.00;99.90;;;;;;5040392;28;20135;-78
2023/12/12 04:06:15;;;;;;;4.95;2.10;;;3.00;99.90;;;;;;5043356;28;20041;-78
2023/12/12 04:08:40;;;;;;;10.02;2.20;;;3.00;99.90;;;;;;5029822;28;20067;-78
2023/12/12 04:11:06;;;;;;;6.25;2.65;;;3.00;99.90;;;;;;5046428;28;20095;-77
2023/12/12 04:13:32;;;;;;;4.15;2.30;;;3.00;99.90;;;;;;5026113;28;20071;-77
2023/12/12 04:15:57;;;;;;;6.47;2.10;;;3.00;99.90;;;;;;5045454;28;20075;-77
2023/12/12 04:18:23;;;;;;;5.50;2.30;;;3.00;99.90;;;;;;5048684;28;20660;-77
2023/12/12 04:20:48;;;;;;;4.25;2.00;;;3.00;99.90;;;;;;5049096;28;20037;-77
2023/12/12 04:23:14;;;;;;;4.40;2.05;;;3.00;99.90;;;;;;5048075;28;20060;-78
2023/12/12 04:25:39;;;;;;;4.90;2.00;;;2.90;99.90;;;;;;5045199;28;20063;-78
2023/12/12 04:28:07;;;;;;;6.22;2.15;;;2.90;99.90;;;;;;5048371;28;20048;-78
2023/12/12 04:30:32;;;;;;;7.40;2.00;;;2.90;99.90;;;;;;5041416;28;20044;-78
2023/12/12 04:32:58;;;;;;;6.20;1.98;;;2.90;99.90;;;;;;5041698;28;20497;-78
2023/12/12 04:35:23;;;;;;;4.47;1.92;;;2.90;99.90;;;;;;5048250;28;20132;-78
2023/12/12 04:37:49;;;;;;;6.43;2.20;;;2.80;99.90;;;;;;5047523;28;20524;-78
2023/12/12 04:40:15;;;;;;;4.90;2.08;;;2.80;99.90;;;;;;5046223;28;20037;-78
2023/12/12 04:42:42;;;;;;;6.47;2.45;;;2.80;99.90;;;;;;5045373;28;20116;-78
2023/12/12 04:45:08;;;;;;;8.60;2.50;;;2.80;99.90;;;;;;5042922;28;20409;-78
2023/12/12 04:47:34;;;;;;;4.53;2.13;;;2.80;99.90;;;;;;5048737;28;20119;-78
2023/12/12 04:49:59;;;;;;;8.65;2.53;;;2.90;99.90;;;;;;5029640;28;20164;-78
2023/12/12 04:52:25;;;;;;;5.07;2.15;;;2.90;99.90;;;;;;5028082;28;20044;-78
2023/12/12 04:54:50;;;;;;;4.03;2.22;;;2.90;99.90;;;;;;5042139;28;20042;-78
2023/12/12 04:57:16;;;;;;;9.98;2.70;;;3.00;99.90;;;;;;5041440;28;20539;-78
2023/12/12 04:59:42;;;;;;;3.63;2.47;;;3.10;99.90;;;;;;5027914;28;20112;-77
2023/12/12 05:02:07;;;;;;;7.43;2.53;;;3.00;99.90;;;;;;5049162;28;20037;-78
2023/12/12 05:04:33;;;;;;;4.43;2.47;;;3.10;99.90;;;;;;5036005;28;20036;-78
2023/12/12 05:06:59;;;;;;;4.70;2.70;;;3.10;99.90;;;;;;5045825;28;20033;-78
2023/12/12 05:09:24;;;;;;;5.63;2.65;;;3.10;99.90;;;;;;5044657;28;20040;-78
2023/12/12 05:11:50;;;;;;;9.05;2.65;;;3.20;99.90;;;;;;5047460;28;20565;-78
2023/12/12 05:14:15;;;;;;;4.57;2.63;;;3.20;99.90;;;;;;5046388;28;20502;-77
2023/12/12 05:16:41;;;;;;;11.25;3.47;;;3.30;99.90;;;;;;5032802;28;20124;-78
2023/12/12 05:19:07;;;;;;;7.88;3.03;;;3.30;99.90;;;;;;5046713;28;20040;-78
2023/12/12 05:21:33;;;;;;;8.23;2.80;;;3.30;99.90;;;;;;5045578;28;20535;-78
2023/12/12 05:23:59;;;;;;;8.13;3.13;;;3.40;99.90;;;;;;5044033;28;20037;-78
2023/12/12 05:26:25;;;;;;;7.00;3.20;;;3.40;99.90;;;;;;5043383;28;20543;-78
2023/12/12 05:28:51;;;;;;;7.68;3.13;;;3.40;99.90;;;;;;5042199;28;20045;-78
2023/12/12 05:31:16;;;;;;;6.57;2.67;;;3.40;99.90;;;;;;5078944;28;20033;-78
2023/12/12 05:33:42;;;;;;;8.07;3.00;;;3.40;99.90;;;;;;5050257;28;20056;-77
2023/12/12 05:36:09;;;;;;;8.00;3.40;;;3.50;99.90;;;;;;5048699;28;20037;-78
2023/12/12 05:38:34;;;;;;;8.65;2.85;;;3.40;99.90;;;;;;5049096;28;20087;-78
2023/12/12 05:41:00;;;;;;;7.65;3.40;;;3.50;99.90;;;;;;5049742;28;20033;-78
2023/12/12 05:43:25;;;;;;;6.45;3.00;;;3.40;99.90;;;;;;5050963;28;20546;-78
2023/12/12 05:45:51;;;;;;;6.90;3.20;;;3.40;99.90;;;;;;5051679;28;20396;-78
2023/12/12 05:48:17;;;;;;;6.68;3.33;;;3.40;99.90;;;;;;5052560;28;20095;-78
2023/12/12 05:50:43;;;;;;;8.98;3.05;;;3.40;99.90;;;;;;5048304;28;20033;-78
2023/12/12 05:53:08;;;;;;;8.82;3.30;;;3.30;99.90;;;;;;5045528;28;20053;-78
2023/12/12 05:55:34;;;;;;;10.77;3.50;;;3.30;99.90;;;;;;5048582;28;20041;-78
2023/12/12 05:58:00;;;;;;;9.43;3.42;;;3.30;99.90;;;;;;5052710;28;20041;-78
2023/12/12 06:00:27;;;;;;;9.68;3.67;;;3.20;99.90;;;;;;5044037;28;20118;-78
2023/12/12 06:02:54;;;;;;;7.93;3.78;;;3.20;99.90;;;;;;5027981;28;20056;-78
2023/12/12 06:05:20;;;;;;;5.72;3.70;;;3.20;99.90;;;;;;5047977;28;20087;-78
2023/12/12 06:07:45;;;;;;;7.70;3.85;;;3.10;99.90;;;;;;5042985;28;20053;-78
2023/12/12 06:10:11;;;;;;;7.43;3.70;;;3.10;99.90;;;;;;5046732;28;20084;-78
2023/12/12 06:12:37;;;;;;;8.27;3.90;;;3.10;99.90;;;;;;5047616;28;20043;-78
2023/12/12 06:15:07;;;;;;;6.47;3.53;;;3.10;99.90;;;;;;5084782;28;20407;-78
2023/12/12 06:17:34;;;;;;;7.88;3.78;;;3.00;99.90;;;;;;5026113;28;20171;-78
2023/12/12 06:19:59;;;;;;;13.57;4.40;;;3.00;99.90;;;;;;5047647;28;20033;-78
2023/12/12 06:22:25;;;;;;;10.38;3.83;;;3.00;99.90;;;;;;5050843;28;20087;-78
2023/12/12 06:24:51;;;;;;;10.43;3.90;;;2.90;99.90;;;;;;5048054;28;20038;-78
2023/12/12 06:27:17;;;;;;;13.13;4.10;;;3.00;99.90;;;;;;5042447;28;20051;-78
2023/12/12 06:29:42;;;;;;;10.27;4.10;;;2.90;99.90;;;;;;5049409;28;20061;-78
2023/12/12 06:32:08;;;;;;;9.05;4.13;;;2.80;99.90;;;;;;5039689;28;20028;-78
2023/12/12 06:34:34;;;;;;;13.60;4.85;;;2.80;99.90;;;;;;5048126;28;20056;-78
2023/12/12 06:36:59;;;;;;;11.45;4.10;;;2.80;99.90;;;;;;5051810;28;20045;-78
2023/12/12 06:39:25;;;;;;;8.82;4.30;;;2.70;99.90;;;;;;5051379;28;20076;-78
2023/12/12 06:41:51;;;;;;;10.30;4.47;;;2.80;99.90;;;;;;5051636;28;20030;-78
2023/12/12 06:44:16;;;;;;;13.93;4.93;;;2.80;99.90;;;;;;5050937;28;20274;-78
2023/12/12 06:46:42;;;;;;;23.77;5.07;;;2.80;99.90;;;;;;5049649;28;20557;-78
2023/12/12 06:49:07;;;;;;;27.90;4.95;;;2.80;99.90;;;;;;5050062;28;20036;-78
2023/12/12 06:51:33;;;;;;;18.55;5.25;;;2.90;99.90;;;;;;5050880;28;20037;-79
2023/12/12 06:53:59;;;;;;;42.50;6.53;;;2.90;99.90;;;;;;5047981;28;20033;-78
2023/12/12 06:56:28;;;;;;;64.18;6.38;;;2.90;99.90;;;;;;5045244;28;20038;-78
2023/12/12 06:58:54;;;;;;;37.72;6.47;;;2.90;99.90;;;;;;5046422;28;20084;-78
2023/12/12 07:01:20;;;;;;;31.25;5.78;;;2.90;99.90;;;;;;5042295;28;20081;-78
2023/12/12 07:03:45;;;;;;;33.67;6.25;;;2.90;99.90;;;;;;5046513;28;20041;-78
2023/12/12 07:06:11;;;;;;;32.30;6.32;;;3.00;99.90;;;;;;5046228;28;20044;-78
2023/12/12 07:08:37;;;;;;;15.85;5.50;;;3.00;99.90;;;;;;5047086;28;20049;-78
2023/12/12 07:11:03;;;;;;;36.10;5.75;;;3.00;99.90;;;;;;5049566;28;20466;-78
2023/12/12 07:13:28;;;;;;;25.42;5.82;;;3.10;99.90;;;;;;5041868;28;20060;-78
2023/12/12 07:15:54;;;;;;;57.17;7.20;;;3.10;99.90;;;;;;5042677;28;20029;-78
2023/12/12 07:18:20;;;;;;;40.70;6.45;;;3.10;99.90;;;;;;5070760;28;20415;-78
2023/12/12 07:20:45;;;;;;;79.57;7.88;;;3.20;99.90;;;;;;5039272;28;20041;-78
2023/12/12 07:23:11;;;;;;;140.80;9.43;;;3.20;99.90;;;;;;5037746;28;20047;-78
2023/12/12 07:25:38;;;;;;;51.65;7.18;;;3.20;99.90;;;;;;5021063;28;20041;-79
2023/12/12 07:28:04;;;;;;;55.85;8.02;;;3.30;99.90;;;;;;5051470;28;20040;-78
2023/12/12 07:30:30;;;;;;;33.72;7.20;;;3.30;99.90;;;;;;5029102;28;20091;-78
2023/12/12 07:32:57;;;;;;;29.17;7.20;;;3.30;99.90;;;;;;5044337;28;20045;-79
2023/12/12 07:35:23;;;;;;;30.63;6.82;;;3.30;99.90;;;;;;5078651;28;20052;-78
2023/12/12 07:37:49;;;;;;;35.30;7.55;;;3.40;99.90;;;;;;5046148;28;20106;-78
2023/12/12 07:40:15;;;;;;;60.15;9.45;;;3.40;99.90;;;;;;5046891;28;20037;-78
2023/12/12 07:42:40;;;;;;;43.13;8.18;;;3.40;99.90;;;;;;5032130;28;20492;-79
2023/12/12 07:45:07;;;;;;;42.67;7.97;;;3.50;99.90;;;;;;5048915;28;20523;-79
2023/12/12 07:47:33;;;;;;;58.20;8.38;;;3.50;99.90;;;;;;5079380;28;20045;-78
2023/12/12 07:49:59;;;;;;;40.45;8.20;;;3.50;99.90;;;;;;5050681;28;20090;-79
2023/12/12 07:52:26;;;;;;;25.55;8.48;;;3.60;99.90;;;;;;5050481;28;20045;-79
2023/12/12 07:54:51;;;;;;;44.20;8.68;;;3.60;99.90;;;;;;5050658;28;20087;-79
2023/12/12 07:57:17;;;;;;;20.98;7.57;;;3.60;99.90;;;;;;5047146;28;20072;-78
2023/12/12 07:59:43;;;;;;;39.17;8.30;;;3.60;99.90;;;;;;5050455;28;20059;-78
2023/12/12 08:02:09;;;;;;;17.92;8.07;;;3.60;99.90;;;;;;5048489;28;20029;-78
2023/12/12 08:04:35;;;;;;;27.73;8.68;;;3.70;99.90;;;;;;5050433;28;20086;-79
2023/12/12 08:07:01;;;;;;;26.48;8.65;;;3.70;99.90;;;;;;5050424;28;20044;-79
2023/12/12 08:09:28;;;;;;;51.60;10.55;;;3.70;99.90;;;;;;5045866;28;20045;-79
2023/12/12 08:11:54;;;;;;;42.53;8.82;;;3.70;99.90;;;;;;5049180;28;20037;-79
2023/12/12 08:14:20;;;;;;;44.75;10.55;;;3.70;99.90;;;;;;5050021;28;20048;-79
2023/12/12 08:16:45;;;;;;;85.85;10.82;;;3.80;99.90;;;;;;5047221;28;20033;-78
2023/12/12 08:19:11;;;;;;;30.55;10.25;;;3.80;99.90;;;;;;5049581;28;20095;-78
2023/12/12 08:21:37;;;;;;;23.60;10.15;;;3.80;99.90;;;;;;5047792;28;20435;-78
2023/12/12 08:24:03;;;;;;;35.17;10.43;;;3.90;99.90;;;;;;5032413;28;20037;-78
2023/12/12 08:26:28;;;;;;;38.50;10.45;;;3.90;99.90;;;;;;5047488;28;20045;-78
2023/12/12 08:28:55;;;;;;;37.40;10.73;;;3.90;99.90;;;;;;5055807;28;20076;-77
2023/12/12 08:31:21;;;;;;;50.85;10.63;;;3.90;99.90;;;;;;5041783;28;20116;-78
2023/12/12 08:33:46;;;;;;;49.72;11.63;;;4.00;99.90;;;;;;5048231;28;20479;-78
2023/12/12 08:36:12;;;;;;;63.90;11.65;;;4.00;99.90;;;;;;5041626;28;20041;-78
2023/12/12 08:38:38;;;;;;;80.43;12.48;;;4.10;99.90;;;;;;5049002;28;20041;-78
2023/12/12 08:41:04;;;;;;;35.22;10.90;;;4.00;99.90;;;;;;5025612;28;20034;-78
2023/12/12 08:43:30;;;;;;;42.92;12.05;;;4.10;99.90;;;;;;5044566;28;20044;-78
2023/12/12 08:45:56;;;;;;;34.45;11.95;;;4.10;99.90;;;;;;5043398;28;20037;-78
2023/12/12 08:48:23;;;;;;;21.05;11.10;;;4.10;99.90;;;;;;5048974;28;20415;-78
2023/12/12 08:50:50;;;;;;;52.85;11.15;;;4.10;99.90;;;;;;5033576;28;20496;-78
2023/12/12 08:53:16;;;;;;;38.95;11.80;;;4.20;99.90;;;;;;5038906;28;20041;-76
2023/12/12 08:55:42;;;;;;;130.55;13.50;;;4.20;99.90;;;;;;5052677;28;20454;-78
2023/12/12 08:58:08;;;;;;;68.40;12.73;;;4.30;99.90;;;;;;5047063;28;20037;-78
2023/12/12 09:00:33;;;;;;;87.03;13.75;;;4.30;99.90;;;;;;5044204;28;20033;-78
2023/12/12 09:02:59;;;;;;;73.82;12.75;;;4.30;99.90;;;;;;5048751;28;20044;-78
2023/12/12 09:05:25;;;;;;;76.85;13.38;;;4.30;99.90;;;;;;5049283;28;20431;-78
2023/12/12 09:07:51;;;;;;;57.50;12.63;;;4.40;99.90;;;;;;5050185;28;20041;-78
2023/12/12 09:10:17;;;;;;;61.97;13.00;;;4.40;99.90;;;;;;5053378;28;20055;-78
2023/12/12 09:12:42;;;;;;;68.38;13.15;;;4.40;99.90;;;;;;5053243;28;20115;-78
2023/12/12 09:15:08;;;;;;;38.40;13.13;;;4.40;99.90;;;;;;5053644;28;20447;-79
2023/12/12 09:17:34;;;;;;;71.32;13.63;;;4.40;99.90;;;;;;5045384;28;20408;-78
2023/12/12 09:20:00;;;;;;;62.55;13.90;;;4.80;99.90;;;;;;5054482;28;20044;-78
2023/12/12 09:22:27;;;;;;;72.55;14.40;;;4.40;99.90;;;;;;5030382;28;20029;-78
2023/12/12 09:24:53;;;;;;;46.17;13.32;;;4.40;99.90;;;;;;5053444;28;20041;-78
2023/12/12 09:27:18;;;;;;;37.22;13.50;;;4.40;99.90;;;;;;5035210;28;20382;-78
2023/12/12 09:29:44;;;;;;;55.55;15.07;;;4.40;99.90;;;;;;5052608;28;20036;-78
2023/12/12 09:32:09;;;;;;;156.70;17.80;;;4.40;99.90;;;;;;5048907;28;20455;-78
2023/12/12 09:34:35;;;;;;;124.80;16.70;;;4.40;99.90;;;;;;5047844;28;20045;-78
2023/12/12 09:37:01;;;;;;;46.03;14.40;;;4.40;99.90;;;;;;5048089;28;20040;-78
2023/12/12 09:39:26;;;;;;;124.75;16.35;;;4.70;99.90;;;;;;5050696;28;20036;-78
2023/12/12 09:41:53;;;;;;;73.18;14.35;;;4.50;99.90;;;;;;5048282;28;20544;-78
2023/12/12 09:44:19;;;;;;;61.38;14.40;;;4.50;99.90;;;;;;5045098;28;20428;-78
2023/12/12 09:46:46;;;;;;;70.20;15.82;;;4.60;99.90;;;;;;5052346;28;20041;-80
2023/12/12 09:49:13;;;;;;;66.05;14.98;;;4.60;99.90;;;;;;5076464;28;20043;-79
2023/12/12 09:51:43;;;;;;;54.80;14.93;;;4.70;99.90;;;;;;5051713;28;20033;-79
2023/12/12 09:54:11;;;;;;;41.47;14.32;;;4.70;99.90;;;;;;5047449;28;20400;-79
2023/12/12 09:56:37;;;;;;;49.17;15.15;;;4.70;99.90;;;;;;5064701;28;20029;-79
2023/12/12 09:59:05;;;;;;;49.25;14.00;;;4.70;99.90;;;;;;5030739;28;20044;-79
2023/12/12 10:01:34;;;;;;;70.63;14.40;;;4.70;99.90;;;;;;5079908;28;20037;-79
2023/12/12 10:04:04;;;;;;;59.78;14.68;;;4.90;99.90;;;;;;5052478;28;20083;-79
2023/12/12 10:06:37;;;;;;;94.55;15.88;;;4.80;99.90;;;;;;5064277;28;20428;-79
2023/12/12 10:09:03;;;;;;;45.05;13.38;;;4.80;99.90;;;;;;5052500;28;20041;-79
2023/12/12 10:11:29;;;;;;;53.75;13.50;;;4.80;99.90;;;;;;5052519;28;20064;-79
2023/12/12 10:13:56;;;;;;;46.45;13.35;;;4.80;99.90;;;;;;5052065;28;20041;-79
2023/12/12 10:16:22;;;;;;;63.10;14.02;;;4.80;99.90;;;;;;5052761;28;20048;-79
2023/12/12 10:18:50;;;;;;;45.92;13.77;;;4.80;99.90;;;;;;5062911;28;20041;-79
2023/12/12 10:21:16;;;;;;;46.75;13.77;;;4.80;99.90;;;;;;5082294;28;20337;-79
2023/12/12 10:23:47;;;;;;;55.22;14.02;;;4.80;99.90;;;;;;5050184;28;20108;-79
2023/12/12 10:26:26;;;;;;;39.40;13.52;;;4.80;99.90;;;;;;5050523;28;20491;-79
2023/12/12 10:28:54;;;;;;;64.93;15.25;;;5.60;99.90;;;;;;5078632;28;20045;-79
2023/12/12 10:31:20;;;;;;;61.33;14.07;;;4.90;99.90;;;;;;5078360;28;20110;-79
2023/12/12 10:33:46;;;;;;;53.45;14.25;;;4.90;99.90;;;;;;5047437;28;20045;-79
2023/12/12 10:36:12;;;;;;;35.53;14.38;;;4.90;99.90;;;;;;5045906;28;20078;-79
2023/12/12 10:38:41;;;;;;;56.42;14.68;;;5.00;99.90;;;;;;5043494;28;20124;-79
2023/12/12 10:41:11;;;;;;;32.80;14.80;;;5.00;99.90;;;;;;5045544;28;20087;-79
2023/12/12 10:43:40;;;;;;;49.53;16.15;;;5.00;99.90;;;;;;5045223;28;20415;-79
2023/12/12 10:46:12;;;;;;;44.55;14.98;;;5.00;99.90;;;;;;5035449;28;20452;-79
2023/12/12 10:48:45;;;;;;;50.55;14.90;;;5.10;99.90;;;;;;5049670;28;20504;-79
2023/12/12 10:51:15;;;;;;;57.05;15.35;;;5.00;99.90;;;;;;5068794;28;20385;-79
2023/12/12 10:53:42;;;;;;;49.78;14.68;;;5.10;99.90;;;;;;5049878;28;20037;-79
2023/12/12 10:56:10;;;;;;;62.90;14.98;;;5.10;99.90;;;;;;5034855;28;20050;-79
2023/12/12 10:58:39;;;;;;;55.72;14.80;;;5.10;99.90;;;;;;5051739;28;20447;-79
2023/12/12 11:01:05;;;;;;;57.10;14.90;;;5.10;99.90;;;;;;5051657;28;20101;-79
2023/12/12 11:03:32;;;;;;;50.97;16.13;;;5.10;99.90;;;;;;5051615;28;20124;-79
2023/12/12 11:05:58;;;;;;;42.03;14.93;;;5.60;99.90;;;;;;5051998;28;20041;-79
2023/12/12 11:08:25;;;;;;;47.42;15.57;;;5.20;99.90;;;;;;5035140;28;20039;-79
2023/12/12 11:10:52;;;;;;;39.42;15.52;;;5.20;99.90;;;;;;5052069;28;20041;-79
2023/12/12 11:13:19;;;;;;;37.33;15.82;;;5.30;99.90;;;;;;5051573;28;20094;-78
2023/12/12 11:15:46;;;;;;;34.38;15.98;;;5.30;99.90;;;;;;5051750;28;20048;-79
2023/12/12 11:18:14;;;;;;;30.52;16.00;;;5.30;99.90;;;;;;5051947;28;20403;-79
2023/12/12 11:20:41;;;;;;;30.85;15.30;;;5.40;99.90;;;;;;5052230;28;20127;-79
2023/12/12 11:23:07;;;;;;;34.10;16.15;;;5.70;99.90;;;;;;5035134;28;20036;-79
2023/12/12 11:25:37;;;;;;;29.48;15.20;;;5.50;99.90;;;;;;5051920;28;20131;-79
2023/12/12 11:28:03;;;;;;;27.60;14.93;;;5.50;99.90;;;;;;5051585;28;20126;-78
2023/12/12 11:30:33;;;;;;;31.13;15.07;;;5.50;99.90;;;;;;5034858;28;20215;-79
2023/12/12 11:33:00;;;;;;;27.23;14.48;;;5.50;99.90;;;;;;5051383;28;20048;-79
2023/12/12 11:35:30;;;;;;;26.85;14.40;;;5.60;99.90;;;;;;5051959;28;20052;-79
2023/12/12 11:38:02;;;;;;;33.60;15.65;;;5.60;99.90;;;;;;5051946;28;20504;-79
2023/12/12 11:40:29;;;;;;;27.88;14.02;;;5.60;99.90;;;;;;5051364;28;20489;-79
2023/12/12 11:43:18;;;;;;;28.17;13.77;;;5.60;99.90;;;;;;5051363;28;20116;-79
2023/12/12 11:45:45;;;;;;;26.52;13.90;;;5.70;99.90;;;;;;5051630;28;20135;-79
2023/12/12 11:48:10;;;;;;;27.17;13.57;;;5.70;99.90;;;;;;5050376;28;20045;-79
2023/12/12 11:50:36;;;;;;;27.70;14.68;;;5.70;99.90;;;;;;5062342;28;20078;-79
2023/12/12 11:53:03;;;;;;;24.70;14.20;;;5.70;99.90;;;;;;5050895;28;20568;-79
2023/12/12 11:55:32;;;;;;;24.30;13.63;;;5.70;99.90;;;;;;5051128;28;20086;-79
2023/12/12 11:58:05;;;;;;;27.38;13.93;;;5.70;99.90;;;;;;5050811;28;20545;-79
2023/12/12 12:00:36;;;;;;;26.08;13.93;;;5.70;99.90;;;;;;5051204;28;20065;-79
2023/12/12 12:03:03;;;;;;;29.67;15.13;;;5.70;99.90;;;;;;5049834;28;20460;-79
2023/12/12 12:05:29;;;;;;;29.63;15.90;;;5.70;99.90;;;;;;5050873;28;20033;-79
2023/12/12 12:07:57;;;;;;;30.98;16.80;;;5.70;99.90;;;;;;5050623;28;20033;-79
2023/12/12 12:10:24;;;;;;;29.38;16.75;;;5.70;99.90;;;;;;5051064;28;20045;-79
2023/12/12 12:12:59;;;;;;;30.98;16.88;;;5.70;99.90;;;;;;5083939;28;20077;-79
2023/12/12 12:15:26;;;;;;;30.40;17.88;;;5.80;99.90;;;;;;5050134;28;20159;-79
2023/12/12 12:17:52;;;;;;;37.45;19.50;;;5.70;99.90;;;;;;5051229;28;20094;-79
2023/12/12 12:20:18;;;;;;;34.63;19.40;;;5.70;99.90;;;;;;5050939;28;20036;-79
2023/12/12 12:22:44;;;;;;;35.72;20.52;;;5.70;99.90;;;;;;5050754;28;20040;-79
2023/12/12 12:25:10;;;;;;;31.75;18.27;;;5.70;99.90;;;;;;5051125;28;20512;-79
2023/12/12 12:27:52;;;;;;;34.15;20.15;;;5.80;99.90;;;;;;5050731;28;20032;-79
2023/12/12 12:30:18;;;;;;;34.20;19.48;;;5.80;99.90;;;;;;5052595;28;20055;-79
2023/12/12 12:33:01;;;;;;;39.05;20.95;;;5.80;99.90;;;;;;5084236;28;20576;-79
2023/12/12 12:35:27;;;;;;;35.27;20.70;;;5.80;99.90;;;;;;5050954;28;20119;-79
2023/12/12 12:37:53;;;;;;;39.30;20.80;;;5.80;99.90;;;;;;5050645;28;20120;-79
2023/12/12 12:40:36;;;;;;;43.63;22.55;;;5.80;99.90;;;;;;5085756;28;20504;-78
2023/12/12 12:43:11;;;;;;;38.58;21.23;;;5.80;99.90;;;;;;5037552;28;20044;-79